sensor_id;sensor_type;location;lat;lon;timestamp;temperature;humidity
15983;DHT22;14442;50.196;8.096;2023-11-18T00:01:59;24.70;47.40
15983;DHT22;14442;50.196;8.096;2023-11-18T00:04:26;24.70;47.30
15983;DHT22;14442;50.196;8.096;2023-11-18T00:06:53;24.70;47.20
15983;DHT22;14442;50.196;8.096;2023-11-18T00:09:20;24.70;47.30
15983;DHT22;14442;50.196;8.096;2023-11-18T00:11:48;24.70;47.30
15983;DHT22;14442;50.196;8.096;2023-11-18T00:14:14;24.70;47.30
15983;DHT22;14442;50.196;8.096;2023-11-18T00:16:42;24.70;47.10
15983;DHT22;14442;50.196;8.096;2023-11-18T00:19:09;24.80;47.00
15983;DHT22;14442;50.196;8.096;2023-11-18T00:21:36;24.90;46.90
15983;DHT22;14442;50.196;8.096;2023-11-18T00:24:03;24.90;47.00
15983;DHT22;14442;50.196;8.096;2023-11-18T00:26:30;25.00;46.80
15983;DHT22;14442;50.196;8.096;2023-11-18T00:28:57;25.00;46.80
15983;DHT22;14442;50.196;8.096;2023-11-18T00:31:24;25.00;46.80
15983;DHT22;14442;50.196;8.096;2023-11-18T00:33:52;25.00;46.70
15983;DHT22;14442;50.196;8.096;2023-11-18T00:36:19;25.10;46.70
15983;DHT22;14442;50.196;8.096;2023-11-18T00:38:46;25.10;46.70
15983;DHT22;14442;50.196;8.096;2023-11-18T00:41:13;25.10;46.60
15983;DHT22;14442;50.196;8.096;2023-11-18T00:43:39;25.10;46.60
15983;DHT22;14442;50.196;8.096;2023-11-18T00:46:06;25.20;46.60
15983;DHT22;14442;50.196;8.096;2023-11-18T00:48:33;25.20;46.60
15983;DHT22;14442;50.196;8.096;2023-11-18T00:51:01;25.20;46.50
15983;DHT22;14442;50.196;8.096;2023-11-18T00:53:27;25.20;46.50
15983;DHT22;14442;50.196;8.096;2023-11-18T00:55:55;25.20;46.50
15983;DHT22;14442;50.196;8.096;2023-11-18T00:58:21;25.30;46.60
15983;DHT22;14442;50.196;8.096;2023-11-18T01:00:48;25.20;46.30
15983;DHT22;14442;50.196;8.096;2023-11-18T01:03:15;25.30;46.40
15983;DHT22;14442;50.196;8.096;2023-11-18T01:05:41;25.30;46.40
15983;DHT22;14442;50.196;8.096;2023-11-18T01:08:11;25.30;46.40
15983;DHT22;14442;50.196;8.096;2023-11-18T01:10:38;25.30;46.30
15983;DHT22;14442;50.196;8.096;2023-11-18T01:13:04;25.40;46.30
15983;DHT22;14442;50.196;8.096;2023-11-18T01:15:31;25.40;46.40
15983;DHT22;14442;50.196;8.096;2023-11-18T01:17:58;25.40;46.30
15983;DHT22;14442;50.196;8.096;2023-11-18T01:20:25;25.40;46.20
15983;DHT22;14442;50.196;8.096;2023-11-18T01:22:52;25.30;46.90
15983;DHT22;14442;50.196;8.096;2023-11-18T01:25:20;25.40;46.30
15983;DHT22;14442;50.196;8.096;2023-11-18T01:27:46;25.40;46.30
15983;DHT22;14442;50.196;8.096;2023-11-18T01:30:13;25.40;46.30
15983;DHT22;14442;50.196;8.096;2023-11-18T01:32:40;25.40;46.30
15983;DHT22;14442;50.196;8.096;2023-11-18T01:35:08;25.40;46.30
15983;DHT22;14442;50.196;8.096;2023-11-18T01:37:36;25.40;46.30
15983;DHT22;14442;50.196;8.096;2023-11-18T01:40:03;25.40;46.20
15983;DHT22;14442;50.196;8.096;2023-11-18T01:42:33;25.40;46.20
15983;DHT22;14442;50.196;8.096;2023-11-18T01:45:00;25.40;46.20
15983;DHT22;14442;50.196;8.096;2023-11-18T01:47:29;25.40;46.20
15983;DHT22;14442;50.196;8.096;2023-11-18T01:49:58;25.40;46.20
15983;DHT22;14442;50.196;8.096;2023-11-18T01:52:25;25.40;46.30
15983;DHT22;14442;50.196;8.096;2023-11-18T01:54:53;25.40;46.20
15983;DHT22;14442;50.196;8.096;2023-11-18T01:57:21;25.40;46.30
15983;DHT22;14442;50.196;8.096;2023-11-18T01:59:49;25.40;46.30
15983;DHT22;14442;50.196;8.096;2023-11-18T02:02:16;25.40;46.30
15983;DHT22;14442;50.196;8.096;2023-11-18T02:04:43;25.40;46.30
15983;DHT22;14442;50.196;8.096;2023-11-18T02:07:10;25.40;46.30
15983;DHT22;14442;50.196;8.096;2023-11-18T02:09:40;25.40;46.30
15983;DHT22;14442;50.196;8.096;2023-11-18T02:12:18;25.30;46.30
15983;DHT22;14442;50.196;8.096;2023-11-18T02:14:49;25.30;46.20
15983;DHT22;14442;50.196;8.096;2023-11-18T02:17:19;25.40;46.40
15983;DHT22;14442;50.196;8.096;2023-11-18T02:19:48;25.30;46.20
15983;DHT22;14442;50.196;8.096;2023-11-18T02:22:15;25.30;46.30
15983;DHT22;14442;50.196;8.096;2023-11-18T02:24:42;25.30;46.40
15983;DHT22;14442;50.196;8.096;2023-11-18T02:27:10;25.30;46.30
15983;DHT22;14442;50.196;8.096;2023-11-18T02:29:41;25.30;46.40
15983;DHT22;14442;50.196;8.096;2023-11-18T02:32:15;25.30;46.30
15983;DHT22;14442;50.196;8.096;2023-11-18T02:34:51;25.30;46.30
15983;DHT22;14442;50.196;8.096;2023-11-18T02:37:21;25.30;46.40
15983;DHT22;14442;50.196;8.096;2023-11-18T02:39:52;25.30;46.30
15983;DHT22;14442;50.196;8.096;2023-11-18T02:42:21;25.20;46.30
15983;DHT22;14442;50.196;8.096;2023-11-18T02:44:49;25.20;46.30
15983;DHT22;14442;50.196;8.096;2023-11-18T02:47:24;25.20;46.30
15983;DHT22;14442;50.196;8.096;2023-11-18T02:49:54;25.30;46.40
15983;DHT22;14442;50.196;8.096;2023-11-18T02:52:22;25.30;46.40
15983;DHT22;14442;50.196;8.096;2023-11-18T02:54:49;25.20;46.40
15983;DHT22;14442;50.196;8.096;2023-11-18T02:57:15;25.20;46.30
15983;DHT22;14442;50.196;8.096;2023-11-18T02:59:43;25.20;46.50
15983;DHT22;14442;50.196;8.096;2023-11-18T03:02:12;25.20;46.40
15983;DHT22;14442;50.196;8.096;2023-11-18T03:04:39;25.20;46.40
15983;DHT22;14442;50.196;8.096;2023-11-18T03:07:08;25.20;46.40
15983;DHT22;14442;50.196;8.096;2023-11-18T03:09:34;25.10;46.30
15983;DHT22;14442;50.196;8.096;2023-11-18T03:12:03;25.20;46.50
15983;DHT22;14442;50.196;8.096;2023-11-18T03:14:33;25.10;46.30
15983;DHT22;14442;50.196;8.096;2023-11-18T03:17:01;25.10;46.50
15983;DHT22;14442;50.196;8.096;2023-11-18T03:19:31;25.10;46.40
15983;DHT22;14442;50.196;8.096;2023-11-18T03:21:59;25.00;46.40
15983;DHT22;14442;50.196;8.096;2023-11-18T03:24:25;25.10;46.50
15983;DHT22;14442;50.196;8.096;2023-11-18T03:26:54;25.10;46.40
15983;DHT22;14442;50.196;8.096;2023-11-18T03:29:20;25.00;46.40
15983;DHT22;14442;50.196;8.096;2023-11-18T03:31:48;25.00;46.40
15983;DHT22;14442;50.196;8.096;2023-11-18T03:34:16;25.00;46.40
15983;DHT22;14442;50.196;8.096;2023-11-18T03:36:45;24.90;46.40
15983;DHT22;14442;50.196;8.096;2023-11-18T03:39:12;24.90;46.40
15983;DHT22;14442;50.196;8.096;2023-11-18T03:41:39;24.90;46.50
15983;DHT22;14442;50.196;8.096;2023-11-18T03:44:06;24.90;46.50
15983;DHT22;14442;50.196;8.096;2023-11-18T03:46:33;24.90;46.50
15983;DHT22;14442;50.196;8.096;2023-11-18T03:49:00;24.90;46.50
15983;DHT22;14442;50.196;8.096;2023-11-18T03:51:28;24.90;46.50
15983;DHT22;14442;50.196;8.096;2023-11-18T03:53:55;24.90;46.50
15983;DHT22;14442;50.196;8.096;2023-11-18T03:56:22;24.80;46.40
15983;DHT22;14442;50.196;8.096;2023-11-18T03:58:48;24.80;46.50
15983;DHT22;14442;50.196;8.096;2023-11-18T04:01:20;24.80;46.50
15983;DHT22;14442;50.196;8.096;2023-11-18T04:03:46;24.80;46.50
15983;DHT22;14442;50.196;8.096;2023-11-18T04:06:13;24.80;46.40
15983;DHT22;14442;50.196;8.096;2023-11-18T04:08:44;24.80;46.50
15983;DHT22;14442;50.196;8.096;2023-11-18T04:11:11;24.80;46.40
15983;DHT22;14442;50.196;8.096;2023-11-18T04:13:38;24.80;46.50
15983;DHT22;14442;50.196;8.096;2023-11-18T04:16:05;24.70;46.40
15983;DHT22;14442;50.196;8.096;2023-11-18T04:18:32;24.80;46.50
15983;DHT22;14442;50.196;8.096;2023-11-18T04:20:58;24.70;46.50
15983;DHT22;14442;50.196;8.096;2023-11-18T04:23:25;24.70;46.50
15983;DHT22;14442;50.196;8.096;2023-11-18T04:25:53;24.70;46.50
15983;DHT22;14442;50.196;8.096;2023-11-18T04:28:20;24.70;46.50
15983;DHT22;14442;50.196;8.096;2023-11-18T04:30:46;24.70;46.50
15983;DHT22;14442;50.196;8.096;2023-11-18T04:33:13;24.70;46.50
15983;DHT22;14442;50.196;8.096;2023-11-18T04:35:40;24.70;46.50
15983;DHT22;14442;50.196;8.096;2023-11-18T04:38:07;24.70;46.50
15983;DHT22;14442;50.196;8.096;2023-11-18T04:40:34;24.60;46.50
15983;DHT22;14442;50.196;8.096;2023-11-18T04:43:02;24.60;46.50
15983;DHT22;14442;50.196;8.096;2023-11-18T04:45:30;24.60;46.60
15983;DHT22;14442;50.196;8.096;2023-11-18T04:47:56;24.50;46.50
15983;DHT22;14442;50.196;8.096;2023-11-18T04:50:24;24.50;46.60
15983;DHT22;14442;50.196;8.096;2023-11-18T04:52:51;24.50;46.50
15983;DHT22;14442;50.196;8.096;2023-11-18T04:55:18;24.50;46.50
15983;DHT22;14442;50.196;8.096;2023-11-18T04:57:45;24.50;46.60
15983;DHT22;14442;50.196;8.096;2023-11-18T05:00:14;24.50;46.70
15983;DHT22;14442;50.196;8.096;2023-11-18T05:02:43;24.40;46.50
15983;DHT22;14442;50.196;8.096;2023-11-18T05:05:13;24.40;46.50
15983;DHT22;14442;50.196;8.096;2023-11-18T05:07:41;24.40;46.60
15983;DHT22;14442;50.196;8.096;2023-11-18T05:10:09;24.40;46.60
15983;DHT22;14442;50.196;8.096;2023-11-18T05:12:37;24.40;46.60
15983;DHT22;14442;50.196;8.096;2023-11-18T05:15:06;24.40;46.60
15983;DHT22;14442;50.196;8.096;2023-11-18T05:17:35;24.40;46.60
15983;DHT22;14442;50.196;8.096;2023-11-18T05:20:02;24.30;46.50
15983;DHT22;14442;50.196;8.096;2023-11-18T05:22:29;24.30;46.50
15983;DHT22;14442;50.196;8.096;2023-11-18T05:24:56;24.30;46.60
15983;DHT22;14442;50.196;8.096;2023-11-18T05:27:23;24.30;46.60
15983;DHT22;14442;50.196;8.096;2023-11-18T05:29:52;24.30;46.60
15983;DHT22;14442;50.196;8.096;2023-11-18T05:32:20;24.30;46.60
15983;DHT22;14442;50.196;8.096;2023-11-18T05:34:50;24.20;46.60
15983;DHT22;14442;50.196;8.096;2023-11-18T05:37:19;24.20;46.70
15983;DHT22;14442;50.196;8.096;2023-11-18T05:39:45;24.20;46.60
15983;DHT22;14442;50.196;8.096;2023-11-18T05:42:14;24.20;46.60
15983;DHT22;14442;50.196;8.096;2023-11-18T05:44:41;24.20;46.50
15983;DHT22;14442;50.196;8.096;2023-11-18T05:47:08;24.10;46.60
15983;DHT22;14442;50.196;8.096;2023-11-18T05:49:37;24.10;46.60
15983;DHT22;14442;50.196;8.096;2023-11-18T05:52:05;24.10;46.70
15983;DHT22;14442;50.196;8.096;2023-11-18T05:54:33;24.10;46.70
15983;DHT22;14442;50.196;8.096;2023-11-18T05:56:59;24.10;46.70
15983;DHT22;14442;50.196;8.096;2023-11-18T05:59:26;24.10;46.70
15983;DHT22;14442;50.196;8.096;2023-11-18T06:01:53;24.00;46.70
15983;DHT22;14442;50.196;8.096;2023-11-18T06:04:22;24.10;46.80
15983;DHT22;14442;50.196;8.096;2023-11-18T06:06:49;24.00;46.70
15983;DHT22;14442;50.196;8.096;2023-11-18T06:09:17;24.00;46.90
15983;DHT22;14442;50.196;8.096;2023-11-18T06:11:46;24.00;46.90
15983;DHT22;14442;50.196;8.096;2023-11-18T06:14:15;24.00;46.90
15983;DHT22;14442;50.196;8.096;2023-11-18T06:16:42;23.90;46.70
15983;DHT22;14442;50.196;8.096;2023-11-18T06:19:09;23.90;46.90
15983;DHT22;14442;50.196;8.096;2023-11-18T06:21:35;23.90;46.80
15983;DHT22;14442;50.196;8.096;2023-11-18T06:24:03;23.90;46.90
15983;DHT22;14442;50.196;8.096;2023-11-18T06:26:32;23.90;46.90
15983;DHT22;14442;50.196;8.096;2023-11-18T06:29:01;23.90;46.90
15983;DHT22;14442;50.196;8.096;2023-11-18T06:31:29;23.90;46.90
15983;DHT22;14442;50.196;8.096;2023-11-18T06:33:56;23.90;46.90
15983;DHT22;14442;50.196;8.096;2023-11-18T06:36:24;23.80;46.80
15983;DHT22;14442;50.196;8.096;2023-11-18T06:38:52;23.80;46.80
15983;DHT22;14442;50.196;8.096;2023-11-18T06:41:20;23.80;46.80
15983;DHT22;14442;50.196;8.096;2023-11-18T06:43:50;23.80;46.80
15983;DHT22;14442;50.196;8.096;2023-11-18T06:46:27;23.80;47.20
15983;DHT22;14442;50.196;8.096;2023-11-18T06:48:57;23.80;46.80
15983;DHT22;14442;50.196;8.096;2023-11-18T06:51:26;23.80;46.90
15983;DHT22;14442;50.196;8.096;2023-11-18T06:53:53;23.70;46.80
15983;DHT22;14442;50.196;8.096;2023-11-18T06:56:21;23.70;46.90
15983;DHT22;14442;50.196;8.096;2023-11-18T06:58:49;23.70;46.90
15983;DHT22;14442;50.196;8.096;2023-11-18T07:01:16;23.70;47.00
15983;DHT22;14442;50.196;8.096;2023-11-18T07:03:44;23.70;46.90
15983;DHT22;14442;50.196;8.096;2023-11-18T07:06:11;23.70;47.00
15983;DHT22;14442;50.196;8.096;2023-11-18T07:08:39;23.70;47.60
15983;DHT22;14442;50.196;8.096;2023-11-18T07:11:06;23.60;46.90
15983;DHT22;14442;50.196;8.096;2023-11-18T07:13:33;23.60;46.90
15983;DHT22;14442;50.196;8.096;2023-11-18T07:16:01;23.60;47.00
15983;DHT22;14442;50.196;8.096;2023-11-18T07:18:30;23.60;47.00
15983;DHT22;14442;50.196;8.096;2023-11-18T07:20:58;23.60;47.00
15983;DHT22;14442;50.196;8.096;2023-11-18T07:23:25;23.60;47.00
15983;DHT22;14442;50.196;8.096;2023-11-18T07:25:52;23.60;47.00
15983;DHT22;14442;50.196;8.096;2023-11-18T07:28:20;23.60;47.00
15983;DHT22;14442;50.196;8.096;2023-11-18T07:30:47;23.60;47.00
15983;DHT22;14442;50.196;8.096;2023-11-18T07:33:15;23.60;47.10
15983;DHT22;14442;50.196;8.096;2023-11-18T07:35:42;23.60;47.10
15983;DHT22;14442;50.196;8.096;2023-11-18T07:38:09;23.60;47.00
15983;DHT22;14442;50.196;8.096;2023-11-18T07:40:36;23.60;47.00
15983;DHT22;14442;50.196;8.096;2023-11-18T07:43:07;23.50;46.90
15983;DHT22;14442;50.196;8.096;2023-11-18T07:45:35;23.60;47.00
15983;DHT22;14442;50.196;8.096;2023-11-18T07:48:03;23.60;47.00
15983;DHT22;14442;50.196;8.096;2023-11-18T07:50:33;23.50;47.60
15983;DHT22;14442;50.196;8.096;2023-11-18T07:53:00;23.50;46.90
15983;DHT22;14442;50.196;8.096;2023-11-18T07:55:27;23.50;47.00
15983;DHT22;14442;50.196;8.096;2023-11-18T07:57:54;23.50;46.90
15983;DHT22;14442;50.196;8.096;2023-11-18T08:00:21;23.50;46.90
15983;DHT22;14442;50.196;8.096;2023-11-18T08:02:49;23.50;47.00
15983;DHT22;14442;50.196;8.096;2023-11-18T08:05:17;23.50;47.00
15983;DHT22;14442;50.196;8.096;2023-11-18T08:07:46;23.50;47.00
15983;DHT22;14442;50.196;8.096;2023-11-18T08:10:13;23.50;47.00
15983;DHT22;14442;50.196;8.096;2023-11-18T08:12:44;23.50;47.00
15983;DHT22;14442;50.196;8.096;2023-11-18T08:15:12;23.50;47.00
15983;DHT22;14442;50.196;8.096;2023-11-18T08:17:41;23.40;47.00
15983;DHT22;14442;50.196;8.096;2023-11-18T08:20:08;23.50;47.00
15983;DHT22;14442;50.196;8.096;2023-11-18T08:22:39;23.40;47.00
15983;DHT22;14442;50.196;8.096;2023-11-18T08:25:08;23.40;47.00
15983;DHT22;14442;50.196;8.096;2023-11-18T08:27:35;23.40;47.00
15983;DHT22;14442;50.196;8.096;2023-11-18T08:30:02;23.40;47.00
15983;DHT22;14442;50.196;8.096;2023-11-18T08:32:31;23.40;47.00
15983;DHT22;14442;50.196;8.096;2023-11-18T08:34:57;23.40;47.00
15983;DHT22;14442;50.196;8.096;2023-11-18T08:37:25;23.40;47.10
15983;DHT22;14442;50.196;8.096;2023-11-18T08:39:53;23.30;47.00
15983;DHT22;14442;50.196;8.096;2023-11-18T08:42:21;23.30;47.00
15983;DHT22;14442;50.196;8.096;2023-11-18T08:44:48;23.20;47.00
15983;DHT22;14442;50.196;8.096;2023-11-18T08:47:14;23.20;47.20
15983;DHT22;14442;50.196;8.096;2023-11-18T08:49:42;23.10;47.30
15983;DHT22;14442;50.196;8.096;2023-11-18T08:52:11;23.10;47.20
15983;DHT22;14442;50.196;8.096;2023-11-18T08:54:38;23.20;47.10
15983;DHT22;14442;50.196;8.096;2023-11-18T08:57:26;23.10;47.10
15983;DHT22;14442;50.196;8.096;2023-11-18T08:59:59;23.10;47.40
15983;DHT22;14442;50.196;8.096;2023-11-18T09:02:32;23.20;47.10
15983;DHT22;14442;50.196;8.096;2023-11-18T09:05:02;23.10;47.10
15983;DHT22;14442;50.196;8.096;2023-11-18T09:07:38;23.10;47.10
15983;DHT22;14442;50.196;8.096;2023-11-18T09:10:05;23.10;47.00
15983;DHT22;14442;50.196;8.096;2023-11-18T09:12:35;23.10;47.00
15983;DHT22;14442;50.196;8.096;2023-11-18T09:15:02;23.10;46.90
15983;DHT22;14442;50.196;8.096;2023-11-18T09:17:30;23.10;46.90
15983;DHT22;14442;50.196;8.096;2023-11-18T09:19:57;23.10;46.90
15983;DHT22;14442;50.196;8.096;2023-11-18T09:22:23;23.20;46.80
15983;DHT22;14442;50.196;8.096;2023-11-18T09:24:50;23.20;46.70
15983;DHT22;14442;50.196;8.096;2023-11-18T09:27:17;23.20;46.70
15983;DHT22;14442;50.196;8.096;2023-11-18T09:29:45;23.30;46.70
15983;DHT22;14442;50.196;8.096;2023-11-18T09:32:12;23.40;46.60
15983;DHT22;14442;50.196;8.096;2023-11-18T09:34:40;23.50;46.50
15983;DHT22;14442;50.196;8.096;2023-11-18T09:37:07;23.80;46.40
15983;DHT22;14442;50.196;8.096;2023-11-18T09:39:35;24.30;46.20
15983;DHT22;14442;50.196;8.096;2023-11-18T09:42:05;24.20;45.80
15983;DHT22;14442;50.196;8.096;2023-11-18T09:44:36;23.90;46.20
15983;DHT22;14442;50.196;8.096;2023-11-18T09:47:08;23.70;46.50
15983;DHT22;14442;50.196;8.096;2023-11-18T09:49:40;23.70;46.80
15983;DHT22;14442;50.196;8.096;2023-11-18T09:52:08;23.70;46.70
15983;DHT22;14442;50.196;8.096;2023-11-18T09:54:42;23.80;46.70
15983;DHT22;14442;50.196;8.096;2023-11-18T09:57:16;23.80;46.70
15983;DHT22;14442;50.196;8.096;2023-11-18T09:59:52;23.90;46.70
15983;DHT22;14442;50.196;8.096;2023-11-18T10:02:24;23.90;46.80
15983;DHT22;14442;50.196;8.096;2023-11-18T10:04:52;23.90;46.70
15983;DHT22;14442;50.196;8.096;2023-11-18T10:07:24;23.90;46.90
15983;DHT22;14442;50.196;8.096;2023-11-18T10:09:53;24.00;46.90
15983;DHT22;14442;50.196;8.096;2023-11-18T10:12:22;24.00;47.00
15983;DHT22;14442;50.196;8.096;2023-11-18T10:14:49;24.00;47.00
15983;DHT22;14442;50.196;8.096;2023-11-18T10:17:17;24.00;47.60
15983;DHT22;14442;50.196;8.096;2023-11-18T10:19:52;24.00;47.00
15983;DHT22;14442;50.196;8.096;2023-11-18T10:22:26;24.00;47.00
15983;DHT22;14442;50.196;8.096;2023-11-18T10:24:53;24.00;47.00
15983;DHT22;14442;50.196;8.096;2023-11-18T10:27:22;24.00;47.00
15983;DHT22;14442;50.196;8.096;2023-11-18T10:29:54;24.00;47.00
15983;DHT22;14442;50.196;8.096;2023-11-18T10:32:21;24.10;47.10
15983;DHT22;14442;50.196;8.096;2023-11-18T10:34:55;24.10;47.10
15983;DHT22;14442;50.196;8.096;2023-11-18T10:37:22;24.10;47.10
15983;DHT22;14442;50.196;8.096;2023-11-18T10:39:49;24.10;47.20
15983;DHT22;14442;50.196;8.096;2023-11-18T10:42:17;24.10;47.20
15983;DHT22;14442;50.196;8.096;2023-11-18T10:44:55;24.10;47.20
15983;DHT22;14442;50.196;8.096;2023-11-18T10:47:24;24.10;47.20
15983;DHT22;14442;50.196;8.096;2023-11-18T10:49:51;24.10;47.20
15983;DHT22;14442;50.196;8.096;2023-11-18T10:52:20;24.10;47.30
15983;DHT22;14442;50.196;8.096;2023-11-18T10:54:52;24.10;47.20
15983;DHT22;14442;50.196;8.096;2023-11-18T10:57:20;24.10;47.20
15983;DHT22;14442;50.196;8.096;2023-11-18T10:59:59;24.10;47.20
15983;DHT22;14442;50.196;8.096;2023-11-18T11:02:30;24.10;47.20
15983;DHT22;14442;50.196;8.096;2023-11-18T11:05:00;24.10;47.10
15983;DHT22;14442;50.196;8.096;2023-11-18T11:07:29;24.10;47.20
15983;DHT22;14442;50.196;8.096;2023-11-18T11:09:57;24.10;47.20
15983;DHT22;14442;50.196;8.096;2023-11-18T11:12:25;23.90;47.20
15983;DHT22;14442;50.196;8.096;2023-11-18T11:15:00;23.90;47.30
15983;DHT22;14442;50.196;8.096;2023-11-18T11:17:30;23.90;47.30
15983;DHT22;14442;50.196;8.096;2023-11-18T11:20:04;23.90;47.40
15983;DHT22;14442;50.196;8.096;2023-11-18T11:22:49;23.80;47.50
15983;DHT22;14442;50.196;8.096;2023-11-18T11:25:24;23.80;47.20
15983;DHT22;14442;50.196;8.096;2023-11-18T11:27:59;23.80;47.10
15983;DHT22;14442;50.196;8.096;2023-11-18T11:30:29;23.80;47.10
15983;DHT22;14442;50.196;8.096;2023-11-18T11:33:03;23.80;47.00
15983;DHT22;14442;50.196;8.096;2023-11-18T11:35:37;23.80;47.00
15983;DHT22;14442;50.196;8.096;2023-11-18T11:38:12;23.80;47.00
15983;DHT22;14442;50.196;8.096;2023-11-18T11:40:41;23.80;47.60
15983;DHT22;14442;50.196;8.096;2023-11-18T11:43:10;23.80;46.90
15983;DHT22;14442;50.196;8.096;2023-11-18T11:45:37;23.80;47.00
15983;DHT22;14442;50.196;8.096;2023-11-18T11:48:07;23.80;47.00
15983;DHT22;14442;50.196;8.096;2023-11-18T11:50:52;23.80;47.00
15983;DHT22;14442;50.196;8.096;2023-11-18T11:53:24;23.80;47.00
15983;DHT22;14442;50.196;8.096;2023-11-18T11:55:54;23.80;47.00
15983;DHT22;14442;50.196;8.096;2023-11-18T11:58:31;23.80;47.00
15983;DHT22;14442;50.196;8.096;2023-11-18T12:00:59;23.80;46.90
15983;DHT22;14442;50.196;8.096;2023-11-18T12:03:33;23.70;46.80
15983;DHT22;14442;50.196;8.096;2023-11-18T12:06:05;23.70;46.90
15983;DHT22;14442;50.196;8.096;2023-11-18T12:08:36;23.70;46.90
15983;DHT22;14442;50.196;8.096;2023-11-18T12:11:05;23.70;46.90
15983;DHT22;14442;50.196;8.096;2023-11-18T12:13:35;23.70;46.90
15983;DHT22;14442;50.196;8.096;2023-11-18T12:16:06;23.70;46.90
15983;DHT22;14442;50.196;8.096;2023-11-18T12:18:35;23.70;47.00
15983;DHT22;14442;50.196;8.096;2023-11-18T12:21:02;23.70;47.00
15983;DHT22;14442;50.196;8.096;2023-11-18T12:23:30;23.70;47.00
15983;DHT22;14442;50.196;8.096;2023-11-18T12:26:01;23.70;47.00
15983;DHT22;14442;50.196;8.096;2023-11-18T12:28:29;23.70;47.00
15983;DHT22;14442;50.196;8.096;2023-11-18T12:31:00;23.60;46.90
15983;DHT22;14442;50.196;8.096;2023-11-18T12:34:01;23.60;46.90
15983;DHT22;14442;50.196;8.096;2023-11-18T12:40:09;23.60;47.00
15983;DHT22;14442;50.196;8.096;2023-11-18T12:43:00;23.60;47.00
15983;DHT22;14442;50.196;8.096;2023-11-18T12:45:43;23.60;47.00
15983;DHT22;14442;50.196;8.096;2023-11-18T12:48:14;23.60;47.00
15983;DHT22;14442;50.196;8.096;2023-11-18T12:50:41;23.60;47.00
15983;DHT22;14442;50.196;8.096;2023-11-18T12:53:09;23.60;47.00
15983;DHT22;14442;50.196;8.096;2023-11-18T12:55:40;23.60;47.00
15983;DHT22;14442;50.196;8.096;2023-11-18T12:58:08;23.60;47.00
15983;DHT22;14442;50.196;8.096;2023-11-18T13:00:39;23.60;46.90
15983;DHT22;14442;50.196;8.096;2023-11-18T13:03:08;23.60;47.00
15983;DHT22;14442;50.196;8.096;2023-11-18T13:05:36;23.60;47.00
15983;DHT22;14442;50.196;8.096;2023-11-18T13:08:03;23.60;46.90
15983;DHT22;14442;50.196;8.096;2023-11-18T13:10:30;23.60;47.00
15983;DHT22;14442;50.196;8.096;2023-11-18T13:12:58;23.60;46.90
15983;DHT22;14442;50.196;8.096;2023-11-18T13:15:27;23.60;47.00
15983;DHT22;14442;50.196;8.096;2023-11-18T13:17:58;23.60;47.00
15983;DHT22;14442;50.196;8.096;2023-11-18T13:20:25;23.60;47.00
15983;DHT22;14442;50.196;8.096;2023-11-18T13:22:52;23.60;47.00
15983;DHT22;14442;50.196;8.096;2023-11-18T13:25:21;23.60;47.00
15983;DHT22;14442;50.196;8.096;2023-11-18T13:27:48;23.60;46.90
15983;DHT22;14442;50.196;8.096;2023-11-18T13:30:16;23.60;47.00
15983;DHT22;14442;50.196;8.096;2023-11-18T13:32:45;23.60;46.90
15983;DHT22;14442;50.196;8.096;2023-11-18T13:35:14;23.60;46.90
15983;DHT22;14442;50.196;8.096;2023-11-18T13:37:46;23.60;47.00
15983;DHT22;14442;50.196;8.096;2023-11-18T13:40:14;23.60;47.00
15983;DHT22;14442;50.196;8.096;2023-11-18T13:42:44;23.50;46.90
15983;DHT22;14442;50.196;8.096;2023-11-18T13:45:12;23.60;47.00
15983;DHT22;14442;50.196;8.096;2023-11-18T13:47:49;23.50;46.90
15983;DHT22;14442;50.196;8.096;2023-11-18T13:50:17;23.50;46.90
15983;DHT22;14442;50.196;8.096;2023-11-18T13:52:45;23.50;46.80
15983;DHT22;14442;50.196;8.096;2023-11-18T13:55:15;23.60;46.90
15983;DHT22;14442;50.196;8.096;2023-11-18T13:57:48;23.50;47.50
15983;DHT22;14442;50.196;8.096;2023-11-18T14:00:15;23.50;46.90
15983;DHT22;14442;50.196;8.096;2023-11-18T14:02:42;23.50;46.90
15983;DHT22;14442;50.196;8.096;2023-11-18T14:05:16;23.50;46.80
15983;DHT22;14442;50.196;8.096;2023-11-18T14:07:43;23.50;46.80
15983;DHT22;14442;50.196;8.096;2023-11-18T14:10:12;23.50;46.80
15983;DHT22;14442;50.196;8.096;2023-11-18T14:12:38;23.50;46.80
15983;DHT22;14442;50.196;8.096;2023-11-18T14:15:06;23.50;46.80
15983;DHT22;14442;50.196;8.096;2023-11-18T14:17:35;23.50;46.80
15983;DHT22;14442;50.196;8.096;2023-11-18T14:20:02;23.50;46.70
15983;DHT22;14442;50.196;8.096;2023-11-18T14:22:30;23.40;46.70
15983;DHT22;14442;50.196;8.096;2023-11-18T14:24:57;23.50;46.80
15983;DHT22;14442;50.196;8.096;2023-11-18T14:27:24;23.50;46.80
15983;DHT22;14442;50.196;8.096;2023-11-18T14:29:51;23.50;46.80
15983;DHT22;14442;50.196;8.096;2023-11-18T14:32:18;23.50;46.80
15983;DHT22;14442;50.196;8.096;2023-11-18T14:34:44;23.50;46.80
15983;DHT22;14442;50.196;8.096;2023-11-18T14:37:14;23.50;46.80
15983;DHT22;14442;50.196;8.096;2023-11-18T14:39:42;23.50;46.80
15983;DHT22;14442;50.196;8.096;2023-11-18T14:42:09;23.50;46.80
15983;DHT22;14442;50.196;8.096;2023-11-18T14:44:36;23.50;46.80
15983;DHT22;14442;50.196;8.096;2023-11-18T14:47:03;23.50;46.80
15983;DHT22;14442;50.196;8.096;2023-11-18T14:49:31;23.50;46.80
15983;DHT22;14442;50.196;8.096;2023-11-18T14:51:58;23.50;46.80
15983;DHT22;14442;50.196;8.096;2023-11-18T14:54:25;23.50;46.80
15983;DHT22;14442;50.196;8.096;2023-11-18T14:56:53;23.40;46.70
15983;DHT22;14442;50.196;8.096;2023-11-18T14:59:19;23.50;46.80
15983;DHT22;14442;50.196;8.096;2023-11-18T15:01:47;23.50;46.80
15983;DHT22;14442;50.196;8.096;2023-11-18T15:04:14;23.50;46.80
15983;DHT22;14442;50.196;8.096;2023-11-18T15:06:41;23.40;46.80
15983;DHT22;14442;50.196;8.096;2023-11-18T15:09:08;23.40;46.80
15983;DHT22;14442;50.196;8.096;2023-11-18T15:11:36;23.40;46.80
15983;DHT22;14442;50.196;8.096;2023-11-18T15:14:04;23.50;46.80
15983;DHT22;14442;50.196;8.096;2023-11-18T15:16:32;23.40;46.70
15983;DHT22;14442;50.196;8.096;2023-11-18T15:18:59;23.40;46.80
15983;DHT22;14442;50.196;8.096;2023-11-18T15:21:26;23.40;46.80
15983;DHT22;14442;50.196;8.096;2023-11-18T15:23:55;23.40;46.80
15983;DHT22;14442;50.196;8.096;2023-11-18T15:26:24;23.40;46.80
15983;DHT22;14442;50.196;8.096;2023-11-18T15:28:51;23.40;46.80
15983;DHT22;14442;50.196;8.096;2023-11-18T15:31:20;23.40;46.80
15983;DHT22;14442;50.196;8.096;2023-11-18T15:33:47;23.40;46.90
15983;DHT22;14442;50.196;8.096;2023-11-18T15:36:14;23.40;46.90
15983;DHT22;14442;50.196;8.096;2023-11-18T15:38:41;23.30;46.80
15983;DHT22;14442;50.196;8.096;2023-11-18T15:41:08;23.30;46.80
15983;DHT22;14442;50.196;8.096;2023-11-18T15:43:36;23.30;46.80